Time;durP1;ratioP1;P1;durP2;ratioP2;P2;SDS_P1;SDS_P2;PMS_P1;PMS_P2;Temp;Humidity;BMP_temperature;BMP_pressure;BME280_temperature;BME280_humidity;BME280_pressure;Samples;Min_cycle;Max_cycle;Signal;HPM_P1;HPM_P2
2022/07/30 00:00:44;;;;;;;11.90;5.00;;;;;;;17.31;79.67;101616.88;5287046;28;20044;-74
2022/07/30 00:03:16;;;;;;;12.33;5.50;;;;;;;17.30;80.39;101622.19;5285442;28;20040;-72
2022/07/30 00:05:47;;;;;;;12.47;6.03;;;;;;;17.13;80.95;101618.25;5283730;28;20036;-73
2022/07/30 00:08:20;;;;;;;8.83;4.90;;;;;;;17.03;81.62;101608.84;5284524;28;20032;-72
2022/07/30 00:10:51;;;;;;;12.80;5.05;;;;;;;16.97;81.88;101611.66;5283701;28;20028;-73
2022/07/30 00:13:23;;;;;;;9.20;5.43;;;;;;;16.87;82.40;101610.16;5284422;28;20078;-73
2022/07/30 00:15:54;;;;;;;10.87;4.90;;;;;;;17.01;82.46;101613.31;5283376;28;20039;-74
2022/07/30 00:18:25;;;;;;;7.43;4.60;;;;;;;17.07;81.76;101602.59;5283600;28;20032;-74
2022/07/30 00:20:57;;;;;;;9.27;5.27;;;;;;;16.87;83.25;101604.91;5283274;28;20464;-73
2022/07/30 00:23:28;;;;;;;17.13;5.40;;;;;;;16.87;83.02;101603.16;5283881;28;20384;-73
2022/07/30 00:26:00;;;;;;;11.00;6.40;;;;;;;17.09;82.86;101603.41;5283396;28;20071;-73
2022/07/30 00:28:31;;;;;;;12.67;6.07;;;;;;;16.98;82.84;101609.88;5283268;28;20032;-74
2022/07/30 00:31:02;;;;;;;14.23;6.20;;;;;;;16.99;83.22;101595.81;5283311;28;20111;-73
2022/07/30 00:33:34;;;;;;;17.63;6.97;;;;;;;16.77;84.42;101609.50;5265702;28;20058;-73
2022/07/30 00:36:07;;;;;;;14.73;5.80;;;;;;;17.01;83.90;101612.44;5283845;28;20098;-73
2022/07/30 00:38:38;;;;;;;14.15;6.03;;;;;;;16.67;85.22;101613.28;5283482;28;20041;-74
2022/07/30 00:41:09;;;;;;;16.80;7.17;;;;;;;16.58;86.01;101623.13;5283437;28;20024;-73
2022/07/30 00:43:41;;;;;;;19.13;7.33;;;;;;;16.54;86.51;101618.84;5284038;28;20062;-73
2022/07/30 00:46:13;;;;;;;11.25;6.85;;;;;;;16.61;87.29;101621.31;5283441;28;20032;-73
2022/07/30 00:48:45;;;;;;;12.45;6.82;;;;;;;16.55;87.77;101622.31;5283333;28;20068;-74
2022/07/30 00:51:16;;;;;;;16.10;7.87;;;;;;;16.46;87.79;101612.91;5283132;28;20071;-74
2022/07/30 00:53:48;;;;;;;14.77;7.17;;;;;;;16.37;88.86;101611.38;5265425;28;20480;-74
2022/07/30 00:56:19;;;;;;;13.00;6.80;;;;;;;16.31;89.47;101615.88;5283952;28;20061;-75
2022/07/30 00:58:50;;;;;;;17.10;8.53;;;;;;;16.20;90.20;101621.41;5283228;28;20037;-72
2022/07/30 01:01:22;;;;;;;11.80;7.20;;;;;;;16.14;90.79;101611.88;5283642;28;20060;-72
2022/07/30 01:03:53;;;;;;;10.27;7.53;;;;;;;16.13;90.91;101614.53;5283978;28;20373;-73
2022/07/30 01:06:25;;;;;;;18.70;8.97;;;;;;;16.19;91.27;101607.38;5283011;28;20040;-73
2022/07/30 01:08:56;;;;;;;16.77;9.80;;;;;;;16.12;92.06;101610.22;5282879;28;20042;-73
2022/07/30 01:11:36;;;;;;;12.37;8.80;;;;;;;16.20;91.89;101606.50;5283313;28;20468;-73
2022/07/30 01:14:08;;;;;;;15.23;8.65;;;;;;;16.11;92.23;101598.78;5283195;28;20535;-74
2022/07/30 01:16:41;;;;;;;13.82;8.65;;;;;;;16.28;91.68;101602.81;5283307;28;20487;-73
2022/07/30 01:22:16;;;;;;;13.48;9.43;;;;;;;16.02;92.52;101605.16;5285285;28;20032;-72
2022/07/30 01:25:27;;;;;;;17.45;9.68;;;;;;;16.08;92.52;101605.91;5304465;28;20028;-74
2022/07/30 01:28:00;;;;;;;15.68;9.85;;;;;;;15.92;93.31;101603.59;5285369;28;20064;-73
2022/07/30 01:30:37;;;;;;;22.60;10.85;;;;;;;15.94;94.03;101606.19;5284645;28;20438;-74
2022/07/30 01:33:15;;;;;;;15.48;9.27;;;;;;;15.92;94.01;101608.84;5268196;28;20160;-73
2022/07/30 01:35:49;;;;;;;13.43;9.98;;;;;;;15.82;93.90;101600.31;5286839;28;20107;-74
2022/07/30 01:38:23;;;;;;;18.02;10.70;;;;;;;15.74;95.41;101609.25;5252928;28;20036;-73
2022/07/30 01:40:55;;;;;;;13.63;10.18;;;;;;;15.73;95.42;101602.25;5268866;28;20029;-73
2022/07/30 01:43:27;;;;;;;;;;;;;;;15.78;94.00;101610.94;5286977;28;20043;-73
2022/07/30 01:46:01;;;;;;;18.50;11.85;;;;;;;15.58;96.49;101619.19;5286545;28;20378;-73
2022/07/30 01:48:39;;;;;;;19.55;12.05;;;;;;;15.57;97.23;101615.72;5286567;28;20044;-73
2022/07/30 01:51:12;;;;;;;20.92;12.85;;;;;;;15.47;97.49;101616.78;5287377;28;20029;-73
2022/07/30 01:53:46;;;;;;;21.13;12.77;;;;;;;15.40;98.19;101607.31;5287226;28;20029;-73
2022/07/30 01:56:21;;;;;;;18.38;11.43;;;;;;;15.40;98.50;101609.94;5268733;28;20024;-73
2022/07/30 01:58:56;;;;;;;18.48;12.00;;;;;;;15.38;98.55;101606.47;5286581;28;20025;-73
2022/07/30 02:01:27;;;;;;;18.98;12.48;;;;;;;15.32;99.22;101607.44;5286676;28;20101;-73
2022/07/30 02:04:01;;;;;;;17.70;12.27;;;;;;;15.27;100.00;101610.16;5285978;28;20130;-74
2022/07/30 02:07:03;;;;;;;18.55;12.68;;;;;;;15.28;99.80;101601.41;5286543;28;20095;-74
2022/07/30 02:09:40;;;;;;;22.27;13.47;;;;;;;15.28;99.13;101611.03;5296957;28;20025;-73
2022/07/30 02:12:28;;;;;;;24.83;14.48;;;;;;;15.29;99.27;101608.38;5293403;28;20025;-73
2022/07/30 02:15:33;;;;;;;19.30;13.02;;;;;;;15.28;99.67;101614.53;5288401;28;20033;-74
2022/07/30 02:18:21;;;;;;;22.20;14.15;;;;;;;15.28;99.76;101611.91;5281521;28;20127;-74
2022/07/30 02:21:00;;;;;;;16.48;12.95;;;;;;;15.29;99.52;101611.03;5286333;28;20111;-73
2022/07/30 02:23:38;;;;;;;18.02;13.25;;;;;;;15.29;99.71;101613.63;5268255;28;20478;-73
2022/07/30 02:26:17;;;;;;;18.40;13.50;;;;;;;15.20;99.76;101607.66;5286289;28;20126;-73
2022/07/30 02:28:53;;;;;;;16.40;13.27;;;;;;;15.20;99.93;101607.66;5286282;28;20475;-74
2022/07/30 02:31:27;;;;;;;19.15;12.80;;;;;;;15.23;99.96;101605.00;5285643;28;20047;-74
2022/07/30 02:34:00;;;;;;;17.83;14.32;;;;;;;15.15;99.56;101607.78;5285426;28;20043;-74
2022/07/30 02:36:34;;;;;;;22.02;14.20;;;;;;;15.14;99.92;101606.91;5285670;28;20035;-74
2022/07/30 02:39:07;;;;;;;21.35;15.63;;;;;;;15.03;100.00;101616.72;5268141;28;20423;-74
2022/07/30 02:41:40;;;;;;;20.20;15.35;;;;;;;14.98;100.00;101612.47;5285587;28;20044;-74
2022/07/30 02:44:11;;;;;;;19.80;15.30;;;;;;;14.99;100.00;101616.81;5266497;28;20482;-74
2022/07/30 02:46:45;;;;;;;21.37;15.03;;;;;;;15.00;100.00;101610.69;5285604;28;20108;-74
2022/07/30 02:49:21;;;;;;;24.85;16.58;;;;;;;14.91;100.00;101616.97;5285620;28;20452;-73
2022/07/30 02:51:53;;;;;;;20.48;15.85;;;;;;;14.95;100.00;101614.22;5287004;28;20047;-75
2022/07/30 02:54:27;;;;;;;18.63;16.00;;;;;;;14.90;100.00;101612.59;5291502;28;20080;-74
2022/07/30 02:57:00;;;;;;;26.38;16.33;;;;;;;14.83;100.00;101613.59;5289981;28;20028;-75
2022/07/30 02:59:32;;;;;;;21.88;17.25;;;;;;;14.75;100.00;101619.00;5285050;28;20107;-74
2022/07/30 03:02:06;;;;;;;28.15;17.58;;;;;;;14.67;100.00;101615.63;5267827;28;20355;-74
2022/07/30 03:04:39;;;;;;;25.90;18.10;;;;;;;14.64;100.00;101623.56;5285550;28;20032;-74
2022/07/30 03:07:11;;;;;;;23.17;17.55;;;;;;;14.63;100.00;101627.91;5285059;28;20039;-74
2022/07/30 03:09:44;;;;;;;24.50;18.65;;;;;;;14.65;100.00;101626.16;5285482;28;20029;-74
2022/07/30 03:12:17;;;;;;;20.10;17.13;;;;;;;14.56;100.00;101621.88;5284982;28;20040;-74
2022/07/30 03:14:50;;;;;;;25.55;20.13;;;;;;;14.50;100.00;101629.81;5284705;28;20057;-73
2022/07/30 03:17:24;;;;;;;30.33;20.08;;;;;;;14.49;100.00;101633.38;5284551;28;20169;-74
2022/07/30 03:19:59;;;;;;;27.38;20.48;;;;;;;14.47;100.00;101627.25;5284578;28;20134;-74
2022/07/30 03:22:34;;;;;;;23.17;19.23;;;;;;;14.50;100.00;101634.22;5284824;28;20398;-74
2022/07/30 03:25:06;;;;;;;24.88;19.15;;;;;;;14.37;100.00;101623.91;5284796;28;20036;-75
2022/07/30 03:27:38;;;;;;;27.27;22.25;;;;;;;14.40;100.00;101626.47;5284060;28;20056;-73
2022/07/30 03:30:11;;;;;;;25.80;19.20;;;;;;;14.37;100.00;101621.28;5284238;28;20066;-73
2022/07/30 03:32:43;;;;;;;23.33;18.85;;;;;;;14.39;100.00;101613.38;5284429;28;20040;-74
2022/07/30 03:35:15;;;;;;;26.25;20.55;;;;;;;14.34;100.00;101620.47;5284828;28;20482;-74
2022/07/30 03:37:47;;;;;;;24.83;19.55;;;;;;;14.46;100.00;101625.53;5266081;28;20032;-73
2022/07/30 03:40:19;;;;;;;;;;;;;;;14.39;100.00;101623.88;5284034;28;20111;-74
2022/07/30 03:42:51;;;;;;;33.78;21.10;;;;;;;14.36;100.00;101623.94;5284244;28;20329;-75
2022/07/30 03:45:23;;;;;;;29.23;19.73;;;;;;;14.29;100.00;101627.53;5283707;28;20132;-75
2022/07/30 03:47:56;;;;;;;29.30;22.80;;;;;;;14.21;100.00;101631.13;5283551;28;20036;-75
2022/07/30 03:50:29;;;;;;;26.67;21.52;;;;;;;14.22;100.00;101638.13;5266755;28;20033;-75
2022/07/30 03:53:03;;;;;;;24.85;21.13;;;;;;;14.13;100.00;101640.88;5284423;28;20531;-75
2022/07/30 03:55:34;;;;;;;27.10;21.40;;;;;;;14.14;100.00;101637.38;5283954;28;20417;-75
2022/07/30 03:58:06;;;;;;;22.73;20.27;;;;;;;14.12;100.00;101641.78;5283820;28;20111;-74
2022/07/30 04:00:39;;;;;;;26.50;20.43;;;;;;;14.08;100.00;101650.56;5283889;28;20069;-75
2022/07/30 04:03:10;;;;;;;22.63;20.23;;;;;;;14.06;100.00;101651.47;5283250;28;20090;-74
2022/07/30 04:05:42;;;;;;;25.03;20.50;;;;;;;14.09;100.00;101647.06;5283277;28;20467;-74
2022/07/30 04:08:13;;;;;;;25.77;20.07;;;;;;;14.06;100.00;101646.25;5284176;28;20035;-74
2022/07/30 04:10:44;;;;;;;24.20;20.93;;;;;;;14.04;100.00;101647.13;5283599;28;20036;-74
2022/07/30 04:13:17;;;;;;;28.50;21.17;;;;;;;14.04;100.00;101654.13;5283541;28;20024;-74
2022/07/30 04:16:00;;;;;;;22.88;19.75;;;;;;;14.03;100.00;101655.00;5283153;28;20080;-74
2022/07/30 04:18:39;;;;;;;27.85;20.60;;;;;;;14.03;100.00;101662.88;5283884;28;20066;-75
2022/07/30 04:21:15;;;;;;;29.17;21.55;;;;;;;14.00;100.00;101660.28;5289200;28;20036;-74
2022/07/30 04:23:48;;;;;;;23.05;20.73;;;;;;;13.98;100.00;101662.06;5304115;28;20043;-74
2022/07/30 04:26:21;;;;;;;28.92;21.25;;;;;;;13.98;100.00;101664.69;5289694;28;20490;-74
2022/07/30 04:28:53;;;;;;;24.42;20.15;;;;;;;13.99;100.00;101666.41;5285442;28;20033;-74
2022/07/30 04:31:26;;;;;;;23.40;20.23;;;;;;;13.96;100.00;101671.69;5283635;28;20116;-73
2022/07/30 04:33:58;;;;;;;21.98;19.67;;;;;;;13.96;100.00;101669.94;5265522;28;20036;-74
2022/07/30 04:36:31;;;;;;;23.03;19.13;;;;;;;13.98;100.00;101669.94;5283527;28;20039;-74
2022/07/30 04:39:03;;;;;;;26.88;18.63;;;;;;;13.97;100.00;101668.19;5265055;28;20033;-73
2022/07/30 04:41:34;;;;;;;24.23;18.43;;;;;;;13.96;100.00;101675.19;5283234;28;20302;-74
2022/07/30 04:44:06;;;;;;;21.83;19.50;;;;;;;13.99;100.00;101676.88;5283434;28;20039;-74
2022/07/30 04:46:37;;;;;;;24.97;19.63;;;;;;;14.01;100.00;101677.75;5283420;28;20064;-74
2022/07/30 04:49:11;;;;;;;23.20;17.87;;;;;;;14.00;100.00;101684.72;5282844;28;20147;-74
2022/07/30 04:51:44;;;;;;;21.05;17.50;;;;;;;14.04;100.00;101681.19;5283317;28;20035;-74
2022/07/30 04:54:18;;;;;;;21.40;17.83;;;;;;;14.04;100.00;101686.44;5283242;28;20044;-73
2022/07/30 04:56:51;;;;;;;25.63;18.73;;;;;;;14.13;100.00;101692.44;5282815;28;20388;-74
2022/07/30 04:59:23;;;;;;;;;;;;;;;14.15;100.00;101702.03;5283598;28;20078;-74
2022/07/30 05:01:57;;;;;;;21.35;18.02;;;;;;;14.16;100.00;101706.38;5283265;28;19916;-74
2022/07/30 05:04:31;;;;;;;21.70;17.70;;;;;;;14.18;100.00;101707.25;5283724;28;20032;-74
2022/07/30 05:07:04;;;;;;;21.52;17.30;;;;;;;14.21;100.00;101707.19;5289506;28;20078;-73
2022/07/30 05:09:36;;;;;;;23.45;17.63;;;;;;;14.21;100.00;101701.94;5299203;28;20041;-74
2022/07/30 05:12:08;;;;;;;21.52;17.77;;;;;;;14.23;100.00;101705.41;5289790;28;20032;-73
2022/07/30 05:14:39;;;;;;;18.87;16.13;;;;;;;14.38;100.00;101700.84;5287830;28;20029;-73
2022/07/30 05:17:10;;;;;;;28.43;18.43;;;;;;;14.40;100.00;101693.81;5287008;28;20421;-74
2022/07/30 05:19:42;;;;;;;22.70;16.37;;;;;;;14.47;100.00;101695.47;5287791;28;20033;-74
2022/07/30 05:22:13;;;;;;;19.70;16.97;;;;;;;14.44;100.00;101698.16;5287383;28;20253;-74
2022/07/30 05:24:44;;;;;;;23.20;17.80;;;;;;;14.49;100.00;101706.81;5269679;28;20033;-74
2022/07/30 05:27:16;;;;;;;18.73;15.83;;;;;;;14.55;100.00;101700.59;5287429;28;20036;-74
2022/07/30 05:29:47;;;;;;;18.50;15.77;;;;;;;14.60;100.00;101701.44;5269697;28;20024;-73
2022/07/30 05:32:19;;;;;;;22.47;15.73;;;;;;;14.67;100.00;101689.97;5287272;28;20101;-74
2022/07/30 05:34:50;;;;;;;19.43;15.17;;;;;;;14.71;100.00;101701.28;5287520;28;20041;-73
2022/07/30 05:37:21;;;;;;;23.83;15.53;;;;;;;14.78;100.00;101708.19;5269090;28;20056;-73
2022/07/30 05:39:53;;;;;;;21.80;16.77;;;;;;;14.81;100.00;101707.25;5286906;28;20365;-74
2022/07/30 05:42:24;;;;;;;22.80;16.07;;;;;;;14.88;100.00;101712.38;5286763;28;20036;-74
2022/07/30 05:44:55;;;;;;;20.70;15.10;;;;;;;14.93;100.00;101713.16;5287075;28;20033;-73
2022/07/30 05:47:27;;;;;;;18.77;15.60;;;;;;;15.02;100.00;101708.66;5286795;28;20093;-73
2022/07/30 05:49:58;;;;;;;18.33;15.03;;;;;;;15.09;100.00;101720.81;5287245;28;20060;-73
2022/07/30 05:52:29;;;;;;;17.70;14.57;;;;;;;15.12;100.00;101721.63;5293584;28;20468;-73
2022/07/30 05:55:01;;;;;;;19.17;15.53;;;;;;;15.23;100.00;101716.19;5297921;28;20035;-73
2022/07/30 05:57:35;;;;;;;20.40;14.10;;;;;;;15.24;100.00;101712.66;5289548;28;20085;-73
2022/07/30 06:00:09;;;;;;;17.15;14.70;;;;;;;15.26;100.00;101716.13;5269255;28;20032;-73
2022/07/30 06:02:41;;;;;;;18.15;13.68;;;;;;;15.32;100.00;101718.63;5286429;28;20048;-72
2022/07/30 06:05:12;;;;;;;15.47;12.50;;;;;;;15.43;100.00;101721.06;5286827;28;20064;-72
2022/07/30 06:07:44;;;;;;;16.70;12.93;;;;;;;15.48;99.84;101724.47;5268560;28;20259;-73
2022/07/30 06:10:15;;;;;;;15.53;13.37;;;;;;;15.56;99.87;101724.34;5286089;28;20101;-74
2022/07/30 06:12:47;;;;;;;19.13;13.30;;;;;;;15.63;99.37;101733.88;5286481;28;20444;-73
2022/07/30 06:15:18;;;;;;;17.03;13.07;;;;;;;15.71;98.68;101731.06;5286333;28;20119;-72
2022/07/30 06:17:50;;;;;;;19.60;12.47;;;;;;;15.85;98.30;101729.06;5285523;28;20041;-73
2022/07/30 06:20:21;;;;;;;17.27;12.27;;;;;;;15.87;97.67;101734.31;5284627;28;20056;-73
2022/07/30 06:22:52;;;;;;;15.60;13.10;;;;;;;15.91;97.07;101735.13;5285733;28;20502;-73
2022/07/30 06:25:24;;;;;;;16.17;11.67;;;;;;;15.92;96.25;101735.06;5285646;28;20039;-73
2022/07/30 06:27:55;;;;;;;14.33;10.17;;;;;;;16.06;96.10;101739.22;5285255;28;20207;-73
2022/07/30 06:30:28;;;;;;;18.33;10.57;;;;;;;16.16;96.08;101743.38;5285218;28;20063;-74
2022/07/30 06:32:59;;;;;;;12.82;9.60;;;;;;;16.24;95.20;101736.19;5285609;28;20494;-73
2022/07/30 06:35:31;;;;;;;12.23;8.47;;;;;;;16.31;94.73;101736.91;5286083;28;20124;-74
2022/07/30 06:38:02;;;;;;;12.40;9.50;;;;;;;16.39;94.16;101748.16;5285756;28;20032;-73
2022/07/30 06:40:34;;;;;;;15.53;9.10;;;;;;;16.41;93.28;101747.22;5285128;28;20472;-74
2022/07/30 06:43:05;;;;;;;13.03;9.07;;;;;;;16.56;92.80;101750.41;5285531;28;20036;-74
2022/07/30 06:45:38;;;;;;;13.13;9.37;;;;;;;16.62;92.77;101752.06;5285513;28;20086;-73
2022/07/30 06:48:09;;;;;;;12.63;7.47;;;;;;;16.61;92.59;101759.06;5284992;28;20025;-74
2022/07/30 06:50:41;;;;;;;15.50;7.30;;;;;;;16.72;90.96;101751.78;5285954;28;20039;-74
2022/07/30 06:53:12;;;;;;;16.47;7.30;;;;;;;16.86;90.59;101753.28;5285771;28;20145;-73
2022/07/30 06:55:44;;;;;;;11.83;6.80;;;;;;;16.90;89.39;101747.03;5285023;28;20119;-73
2022/07/30 06:58:15;;;;;;;11.97;6.40;;;;;;;17.10;89.83;101746.56;5285119;28;20025;-75
2022/07/30 07:00:47;;;;;;;11.82;6.55;;;;;;;17.24;88.53;101756.72;5267520;28;20032;-74
2022/07/30 07:03:18;;;;;;;9.00;6.73;;;;;;;17.54;87.37;101754.22;5285295;28;20033;-74
2022/07/30 07:05:49;;;;;;;12.43;6.37;;;;;;;17.82;85.62;101754.31;5285237;28;20070;-74
2022/07/30 07:08:21;;;;;;;10.27;6.07;;;;;;;17.97;84.39;101748.66;5284950;28;20024;-75
2022/07/30 07:10:52;;;;;;;11.83;6.50;;;;;;;18.17;82.89;101753.34;5284250;28;20028;-75
2022/07/30 07:13:24;;;;;;;11.63;6.37;;;;;;;18.24;81.96;101762.00;5284707;28;20533;-74
2022/07/30 07:15:56;;;;;;;12.70;5.60;;;;;;;18.32;79.22;101770.53;5285153;28;20032;-73
2022/07/30 07:18:28;;;;;;;8.00;4.85;;;;;;;18.48;80.33;101768.31;5285241;28;20035;-74
2022/07/30 07:20:59;;;;;;;12.17;5.00;;;;;;;18.47;77.86;101768.34;5285759;28;20032;-74
2022/07/30 07:23:30;;;;;;;7.33;4.23;;;;;;;18.57;77.39;101759.22;5289011;28;20016;-76
2022/07/30 07:26:02;;;;;;;8.77;4.57;;;;;;;18.48;78.36;101762.16;5300892;28;20044;-74
2022/07/30 07:28:33;;;;;;;8.63;4.90;;;;;;;18.58;77.21;101760.97;5289889;28;20024;-73
2022/07/30 07:31:06;;;;;;;7.53;3.97;;;;;;;18.52;75.98;101769.06;5284806;28;20079;-73
2022/07/30 07:33:39;;;;;;;;;;;;;;;18.67;77.47;101765.94;5284349;28;20036;-74
2022/07/30 07:36:10;;;;;;;;;;;;;;;18.53;77.18;101766.38;5284208;28;19918;-74
2022/07/30 07:38:41;;;;;;;11.83;4.50;;;;;;;18.17;76.38;101768.34;5283590;28;19916;-74
2022/07/30 07:41:13;;;;;;;11.00;4.87;;;;;;;18.06;77.53;101763.34;5282690;28;20495;-74
2022/07/30 07:43:44;;;;;;;8.97;4.40;;;;;;;18.16;77.91;101764.84;5283399;28;20036;-74
2022/07/30 07:46:16;;;;;;;12.17;4.00;;;;;;;18.16;78.58;101772.75;5265379;28;20376;-73
2022/07/30 07:48:47;;;;;;;10.18;3.72;;;;;;;18.04;76.68;101766.03;5283311;28;20087;-73
2022/07/30 07:51:19;;;;;;;10.93;4.10;;;;;;;18.21;76.55;101762.94;5283379;28;20036;-73
2022/07/30 07:53:51;;;;;;;12.10;4.28;;;;;;;18.47;77.59;101763.94;5283333;28;20056;-73
2022/07/30 07:56:23;;;;;;;8.80;3.37;;;;;;;18.67;75.44;101763.31;5283278;28;20055;-74
2022/07/30 07:58:54;;;;;;;6.72;3.00;;;;;;;18.86;72.53;101760.13;5283073;28;20380;-73
2022/07/30 08:01:26;;;;;;;5.87;2.87;;;;;;;18.91;71.17;101764.34;5282769;28;20036;-73
2022/07/30 08:03:57;;;;;;;8.77;3.03;;;;;;;19.04;73.14;101762.16;5282958;28;20416;-73
2022/07/30 08:06:29;;;;;;;6.73;3.10;;;;;;;19.21;73.06;101761.63;5283596;28;20427;-73
2022/07/30 08:09:01;;;;;;;8.75;3.60;;;;;;;19.05;69.74;101771.84;5283159;28;20082;-73
2022/07/30 08:11:32;;;;;;;8.97;3.43;;;;;;;19.23;69.61;101769.50;5283478;28;20032;-73
2022/07/30 08:14:03;;;;;;;10.87;3.47;;;;;;;19.39;69.45;101765.41;5283081;28;20309;-73
2022/07/30 08:16:35;;;;;;;11.63;3.70;;;;;;;19.32;67.87;101771.84;5282896;28;20119;-74
2022/07/30 08:19:06;;;;;;;8.20;3.73;;;;;;;19.10;67.05;101763.75;5283177;28;20031;-74
2022/07/30 08:21:37;;;;;;;8.20;3.07;;;;;;;19.10;68.19;101753.19;5282828;28;20467;-74
2022/07/30 08:24:09;;;;;;;5.60;2.80;;;;;;;19.28;68.00;101760.47;5264829;28;20512;-73
2022/07/30 08:26:40;;;;;;;11.07;3.73;;;;;;;19.08;67.54;101758.53;5282795;28;20455;-73
2022/07/30 08:29:12;;;;;;;8.65;3.80;;;;;;;19.21;67.25;101764.25;5282765;28;20031;-74
2022/07/30 08:31:43;;;;;;;9.30;3.50;;;;;;;19.30;66.57;101763.97;5282298;28;20043;-73
2022/07/30 08:34:15;;;;;;;6.30;3.07;;;;;;;19.47;65.69;101763.38;5282999;28;20493;-73
2022/07/30 08:36:46;;;;;;;5.43;2.83;;;;;;;19.51;63.96;101769.41;5283197;28;20483;-73
2022/07/30 08:39:18;;;;;;;6.00;2.47;;;;;;;19.61;63.34;101764.66;5282432;28;20027;-74
2022/07/30 08:41:49;;;;;;;10.00;2.80;;;;;;;19.77;63.52;101760.63;5282026;28;20283;-73
2022/07/30 08:44:22;;;;;;;7.63;3.27;;;;;;;19.80;63.64;101754.31;5282026;28;20025;-73
2022/07/30 08:46:55;;;;;;;7.28;2.80;;;;;;;19.92;63.75;101761.84;5264952;28;20099;-73
2022/07/30 08:49:26;;;;;;;5.82;3.22;;;;;;;20.15;64.00;101755.69;5282336;28;20067;-74
2022/07/30 08:51:58;;;;;;;7.70;2.80;;;;;;;20.10;62.40;101757.63;5282493;28;20036;-73
2022/07/30 08:54:29;;;;;;;6.13;2.70;;;;;;;20.34;62.73;101755.00;5264524;28;20270;-74
2022/07/30 08:57:02;;;;;;;5.10;3.00;;;;;;;20.31;63.25;101769.19;5264685;28;20035;-71
2022/07/30 08:59:36;;;;;;;10.80;3.25;;;;;;;20.36;61.24;101764.59;5282708;28;20118;-73
2022/07/30 09:02:07;;;;;;;6.13;2.88;;;;;;;20.55;61.20;101761.25;5282153;28;20039;-73
2022/07/30 09:04:39;;;;;;;6.00;2.50;;;;;;;20.83;61.96;101757.53;5281887;28;20029;-73
2022/07/30 09:07:10;;;;;;;6.20;2.40;;;;;;;20.87;57.11;101761.78;5282385;28;20025;-73
2022/07/30 09:09:42;;;;;;;6.47;2.40;;;;;;;20.86;57.26;101762.69;5264022;28;20086;-74
2022/07/30 09:12:32;;;;;;;6.10;2.63;;;;;;;21.02;58.12;101762.94;5281711;28;20020;-73
2022/07/30 09:15:19;;;;;;;11.50;3.55;;;;;;;21.12;59.06;101767.81;5263998;28;20093;-74
2022/07/30 09:17:53;;;;;;;5.22;2.67;;;;;;;21.09;57.28;101775.88;5281860;28;20028;-75
2022/07/30 09:20:33;;;;;;;6.60;2.78;;;;;;;21.28;57.30;101775.09;5282033;28;20444;-74
2022/07/30 09:23:05;;;;;;;11.20;3.85;;;;;;;21.37;58.14;101772.06;5263958;28;20155;-74
2022/07/30 09:25:41;;;;;;;7.85;3.03;;;;;;;21.22;55.44;101775.34;5281353;28;20036;-74
2022/07/30 09:28:12;;;;;;;10.02;3.05;;;;;;;21.07;56.77;101776.88;5281671;28;20380;-74
2022/07/30 09:30:52;;;;;;;6.67;2.90;;;;;;;21.24;56.68;101778.81;5281720;28;20033;-73
2022/07/30 09:33:30;;;;;;;5.53;2.22;;;;;;;21.41;54.88;101786.94;5282103;28;20267;-74
2022/07/30 09:36:05;;;;;;;4.80;2.67;;;;;;;21.62;54.04;101776.34;5281726;28;20024;-73
2022/07/30 09:38:50;;;;;;;10.48;3.42;;;;;;;21.59;54.65;101785.31;5263925;28;20043;-73
2022/07/30 09:41:36;;;;;;;5.55;2.38;;;;;;;21.67;54.17;101782.34;5281651;28;20108;-73
2022/07/30 09:44:07;;;;;;;7.63;2.58;;;;;;;21.71;53.98;101775.09;5282153;28;20031;-73
2022/07/30 09:46:50;;;;;;;5.13;2.07;;;;;;;22.17;55.46;101776.53;5281200;28;20036;-73
2022/07/30 09:49:27;;;;;;;4.32;2.28;;;;;;;22.11;52.94;101770.66;5247776;28;20060;-73
2022/07/30 09:51:59;;;;;;;4.15;2.22;;;;;;;22.42;53.49;101769.25;5282179;28;20127;-73
2022/07/30 09:54:48;;;;;;;6.73;2.30;;;;;;;23.00;52.52;101766.44;5266970;28;20124;-73
2022/07/30 09:57:20;;;;;;;3.92;2.08;;;;;;;23.95;53.69;101760.72;5285736;28;20047;-74
2022/07/30 09:59:51;;;;;;;4.57;2.00;;;;;;;25.59;45.62;101764.81;5268245;28;20091;-74
2022/07/30 10:02:32;;;;;;;4.97;2.20;;;;;;;26.56;41.79;101762.31;5285724;28;20368;-73
2022/07/30 10:05:09;;;;;;;8.68;3.65;;;;;;;26.90;45.86;101756.56;5285493;28;20348;-76
2022/07/30 10:07:54;;;;;;;6.55;1.83;;;;;;;28.20;38.79;101756.56;5285984;28;20028;-75
2022/07/30 10:10:30;;;;;;;5.30;2.97;;;;;;;27.78;37.59;101753.28;5286309;28;20028;-75
2022/07/30 10:13:03;;;;;;;8.90;2.70;;;;;;;27.35;36.76;101759.81;5285869;28;20112;-74
2022/07/30 10:15:35;;;;;;;6.47;2.30;;;;;;;26.96;37.41;101758.00;5285609;28;20048;-75
2022/07/30 10:18:07;;;;;;;5.40;2.40;;;;;;;27.87;36.15;101755.31;5285436;28;20464;-74
2022/07/30 10:20:39;;;;;;;;;;;;;;;30.25;38.36;101750.88;5285417;28;20157;-75
2022/07/30 10:23:11;;;;;;;7.63;2.23;;;;;;;29.61;32.80;101749.66;5286313;28;20011;-74
2022/07/30 10:25:43;;;;;;;;;;;;;;;31.49;32.91;101749.53;5286369;28;20044;-73
2022/07/30 10:28:16;;;;;;;4.55;1.70;;;;;;;30.28;31.61;101747.94;5284881;28;19917;-73
2022/07/30 10:30:54;;;;;;;5.32;2.05;;;;;;;30.62;32.58;101742.50;5285524;28;20029;-74
2022/07/30 10:33:28;;;;;;;5.63;2.28;;;;;;;30.80;31.08;101751.75;5285512;28;20033;-74
2022/07/30 10:36:00;;;;;;;4.15;1.77;;;;;;;31.36;32.39;101747.91;5284671;28;20028;-74
2022/07/30 10:38:36;;;;;;;6.75;2.55;;;;;;;31.32;29.12;101751.88;5284657;28;20409;-75
2022/07/30 10:41:22;;;;;;;5.43;1.60;;;;;;;31.54;32.41;101750.03;5284951;28;20052;-74
2022/07/30 10:44:19;;;;;;;8.23;1.95;;;;;;;33.10;31.38;101755.81;5284402;28;20447;-73
2022/07/30 10:47:03;;;;;;;5.25;2.10;;;;;;;32.74;30.28;101750.16;5284580;28;20048;-73
2022/07/30 10:49:35;;;;;;;4.65;1.60;;;;;;;33.15;27.72;101745.44;5266615;28;20128;-74
2022/07/30 10:52:06;;;;;;;4.32;2.17;;;;;;;32.16;27.47;101753.59;5266602;28;20178;-75
2022/07/30 10:54:41;;;;;;;5.88;2.13;;;;;;;31.12;30.36;101758.94;5250777;28;20397;-74
2022/07/30 10:57:15;;;;;;;3.28;1.70;;;;;;;31.05;30.13;101763.16;5284883;28;20363;-75
2022/07/30 11:00:08;;;;;;;6.20;2.08;;;;;;;31.71;30.15;101746.72;5284887;28;20119;-75
2022/07/30 11:03:14;;;;;;;7.88;2.53;;;;;;;32.46;27.82;101747.25;5284599;28;20459;-76
2022/07/30 11:05:48;;;;;;;3.55;1.80;;;;;;;31.24;30.11;101740.91;5283564;28;20114;-75
2022/07/30 11:08:40;;;;;;;4.95;1.80;;;;;;;31.74;30.80;101741.06;5284338;28;20081;-75
2022/07/30 11:11:20;;;;;;;;;;;;;;;32.92;27.12;101741.34;5284595;28;20037;-75
2022/07/30 11:13:58;;;;;;;5.40;1.73;;;;;;;31.66;30.63;101745.44;5284201;28;19908;-75
2022/07/30 11:16:30;;;;;;;6.57;1.92;;;;;;;32.19;28.13;101739.81;5283882;28;20101;-75
2022/07/30 11:19:16;;;;;;;5.30;2.00;;;;;;;31.84;27.75;101737.56;5284121;28;20028;-76
2022/07/30 11:22:24;;;;;;;8.98;2.38;;;;;;;32.32;28.21;101747.66;5284351;28;20025;-76
2022/07/30 11:24:56;;;;;;;5.68;1.88;;;;;;;32.58;27.30;101737.19;5284445;28;20025;-74
2022/07/30 11:27:37;;;;;;;6.43;2.58;;;;;;;33.02;27.81;101739.47;5283712;28;20029;-76
2022/07/30 11:30:14;;;;;;;4.50;2.17;;;;;;;33.19;26.97;101741.47;5266026;28;20545;-75
2022/07/30 11:32:51;;;;;;;6.07;1.92;;;;;;;33.58;28.45;101740.50;5283396;28;20456;-75
2022/07/30 11:35:27;;;;;;;4.05;1.90;;;;;;;33.91;26.53;101725.59;5283639;28;20040;-75
2022/07/30 11:38:18;;;;;;;4.07;1.90;;;;;;;34.90;29.76;101723.94;5284124;28;20114;-76
2022/07/30 11:40:49;;;;;;;6.40;2.28;;;;;;;35.51;23.82;101724.03;5284333;28;20051;-75
2022/07/30 11:43:28;;;;;;;5.10;2.10;;;;;;;36.32;26.81;101720.84;5283943;28;20029;-76
2022/07/30 11:46:18;;;;;;;6.50;2.80;;;;;;;36.10;24.05;101732.28;5283594;28;20392;-76
2022/07/30 11:49:04;;;;;;;4.85;2.33;;;;;;;34.44;25.07;101720.44;5283088;28;20084;-76
2022/07/30 11:51:45;;;;;;;7.28;2.80;;;;;;;35.07;25.04;101724.94;5283370;28;20040;-76